createdAt,value
2019-04-05T00:00:54.525Z,7.30
2019-04-05T00:03:22.863Z,7.31
2019-04-05T00:05:51.194Z,7.31
2019-04-05T00:08:19.530Z,7.30
2019-04-05T00:10:47.861Z,7.30
2019-04-05T00:13:16.202Z,7.30
2019-04-05T00:15:45.000Z,7.31
2019-04-05T00:18:13.357Z,7.31
2019-04-05T00:20:41.679Z,7.30
2019-04-05T00:23:10.295Z,7.30
2019-04-05T00:25:39.083Z,7.29
2019-04-05T00:28:07.411Z,7.29
2019-04-05T00:30:35.740Z,7.30
2019-04-05T00:33:04.044Z,7.30
2019-04-05T00:35:32.381Z,7.29
2019-04-05T00:38:00.702Z,7.27
2019-04-05T00:40:29.466Z,7.26
2019-04-05T00:42:57.775Z,7.25
2019-04-05T00:45:28.429Z,7.24
2019-04-05T00:47:56.169Z,7.25
2019-04-05T00:50:24.815Z,7.23
2019-04-05T00:52:53.166Z,7.22
2019-04-05T00:55:21.471Z,7.23
2019-04-05T00:57:49.966Z,7.21
2019-04-05T01:00:18.346Z,7.20
2019-04-05T01:02:46.930Z,7.20
2019-04-05T01:05:15.706Z,7.20
2019-04-05T01:07:44.218Z,7.20
2019-04-05T01:10:13.573Z,7.18
2019-04-05T01:12:42.479Z,7.18
2019-04-05T01:15:12.288Z,7.18
2019-04-05T01:17:40.782Z,7.18
2019-04-05T01:20:11.286Z,7.18
2019-04-05T01:22:41.439Z,7.17
2019-04-05T01:25:09.760Z,7.17
2019-04-05T01:27:40.101Z,7.20
2019-04-05T01:30:11.619Z,7.18
2019-04-05T01:32:40.357Z,7.18
2019-04-05T01:35:09.147Z,7.16
2019-04-05T01:37:38.353Z,7.16
2019-04-05T01:40:08.011Z,7.17
2019-04-05T01:42:37.483Z,7.17
2019-04-05T01:45:07.914Z,7.16
2019-04-05T01:47:36.791Z,7.16
2019-04-05T01:50:07.102Z,7.16
2019-04-05T01:52:35.779Z,7.16
2019-04-05T01:55:05.221Z,7.16
2019-04-05T01:57:33.568Z,7.15
2019-04-05T02:00:02.180Z,7.13
2019-04-05T02:02:30.593Z,7.12
2019-04-05T02:04:58.947Z,7.12
2019-04-05T02:07:27.277Z,7.10
2019-04-05T02:09:55.632Z,7.10
2019-04-05T02:12:24.372Z,7.10
2019-04-05T02:14:52.801Z,7.09
2019-04-05T02:17:21.114Z,7.09
2019-04-05T02:19:49.455Z,7.08
2019-04-05T02:22:17.786Z,7.07
2019-04-05T02:24:46.131Z,7.06
2019-04-05T02:27:14.732Z,7.06
2019-04-05T02:29:43.517Z,7.06
2019-04-05T02:32:11.818Z,7.06
2019-04-05T02:34:40.166Z,7.07
2019-04-05T02:37:08.481Z,7.07
2019-04-05T02:39:36.809Z,7.06
2019-04-05T02:42:05.569Z,7.07
2019-04-05T02:44:34.555Z,7.06
2019-04-05T02:47:03.660Z,7.06
2019-04-05T02:49:32.347Z,7.05
2019-04-05T02:52:01.885Z,7.04
2019-04-05T02:54:30.655Z,7.01
2019-04-05T02:56:59.573Z,6.99
2019-04-05T02:59:28.029Z,7.01
2019-04-05T03:01:56.702Z,7.00
2019-04-05T03:04:25.097Z,6.98
2019-04-05T03:06:53.708Z,6.96
2019-04-05T03:09:22.908Z,6.93
2019-04-05T03:11:51.482Z,6.94
2019-04-05T03:14:20.668Z,6.87
2019-04-05T03:16:50.976Z,6.83
2019-04-05T03:19:21.929Z,6.84
2019-04-05T03:21:52.217Z,6.87
2019-04-05T03:24:23.229Z,6.92
2019-04-05T03:26:57.570Z,6.95
2019-04-05T03:29:26.134Z,6.97
2019-04-05T03:31:54.646Z,6.99
2019-04-05T03:34:23.203Z,7.01
2019-04-05T03:36:52.420Z,7.04
2019-04-05T03:39:21.870Z,7.06
2019-04-05T03:41:50.310Z,7.08
2019-04-05T03:44:22.675Z,7.09
2019-04-05T03:46:56.527Z,7.11
2019-04-05T03:49:18.876Z,7.10
2019-04-05T03:51:47.275Z,7.10
2019-04-05T03:54:15.738Z,7.11
2019-04-05T03:56:44.217Z,7.12
2019-04-05T03:59:12.538Z,7.12
2019-04-05T04:01:40.906Z,7.12
2019-04-05T04:04:09.201Z,7.11
2019-04-05T04:06:37.507Z,7.13
2019-04-05T04:09:06.492Z,7.09
2019-04-05T04:11:34.849Z,7.05
2019-04-05T04:14:03.240Z,7.02
2019-04-05T04:16:31.888Z,7.03
2019-04-05T04:19:00.762Z,7.05
2019-04-05T04:21:37.330Z,7.04
2019-04-05T04:24:05.916Z,7.01
2019-04-05T04:26:34.667Z,7.00
2019-04-05T04:29:03.617Z,6.98
2019-04-05T04:31:31.923Z,6.99
2019-04-05T04:34:00.605Z,7.01
2019-04-05T04:36:29.274Z,6.99
2019-04-05T04:38:57.783Z,6.97
2019-04-05T04:41:26.171Z,6.97
2019-04-05T04:43:54.833Z,6.98
2019-04-05T04:46:23.153Z,7.01
2019-04-05T04:48:51.446Z,7.05
2019-04-05T04:51:20.017Z,7.07
2019-04-05T04:53:48.686Z,7.09
2019-04-05T04:56:17.069Z,7.05
2019-04-05T04:58:46.400Z,7.06
2019-04-05T05:01:14.933Z,7.07
2019-04-05T05:03:43.239Z,7.09
2019-04-05T05:06:11.710Z,7.10
2019-04-05T05:08:40.223Z,7.08
2019-04-05T05:11:14.787Z,7.05
2019-04-05T05:13:39.090Z,7.02
2019-04-05T05:16:07.670Z,7.02
2019-04-05T05:18:36.053Z,7.00
2019-04-05T05:21:04.476Z,6.99
2019-04-05T05:23:33.584Z,7.01
2019-04-05T05:26:02.064Z,7.04
2019-04-05T05:28:32.829Z,7.07
2019-04-05T05:31:00.706Z,7.09
2019-04-05T05:33:29.082Z,7.12
2019-04-05T05:35:57.371Z,7.11
2019-04-05T05:38:25.793Z,7.13
2019-04-05T05:40:54.190Z,7.14
2019-04-05T05:43:23.994Z,7.18
2019-04-05T05:45:52.572Z,7.18
2019-04-05T05:48:21.192Z,7.21
2019-04-05T05:50:49.522Z,7.21
2019-04-05T05:53:17.837Z,7.22
2019-04-05T05:55:46.135Z,7.23
2019-04-05T05:58:14.438Z,7.23
2019-04-05T06:00:42.753Z,7.23
2019-04-05T06:03:12.083Z,7.26
2019-04-05T06:05:40.433Z,7.29
2019-04-05T06:08:08.730Z,7.31
2019-04-05T06:10:37.057Z,7.35
2019-04-05T06:13:07.153Z,7.36
2019-04-05T06:15:37.485Z,7.38
2019-04-05T06:18:05.465Z,7.40
2019-04-05T06:20:33.796Z,7.44
2019-04-05T06:23:02.090Z,7.48
2019-04-05T06:25:30.441Z,7.52
2019-04-05T06:27:59.878Z,7.55
2019-04-05T06:30:28.934Z,7.61
2019-04-05T06:32:57.264Z,7.61
2019-04-05T06:35:25.576Z,7.60
2019-04-05T06:37:54.216Z,7.60
2019-04-05T06:40:22.542Z,7.62
2019-04-05T06:42:50.873Z,7.61
2019-04-05T06:45:19.177Z,7.63
2019-04-05T06:47:47.835Z,7.64
2019-04-05T06:50:16.145Z,7.69
2019-04-05T06:52:44.713Z,7.72
2019-04-05T06:55:13.036Z,7.77
2019-04-05T06:57:41.573Z,7.78
2019-04-05T07:00:10.050Z,7.78
2019-04-05T07:02:38.418Z,7.79
2019-04-05T07:05:07.561Z,7.78
2019-04-05T07:07:36.277Z,7.78
2019-04-05T07:10:06.242Z,7.76
2019-04-05T07:12:34.559Z,7.75
2019-04-05T07:15:03.019Z,7.72
2019-04-05T07:17:31.333Z,7.74
2019-04-05T07:19:59.625Z,7.83
2019-04-05T07:22:38.519Z,7.85
2019-04-05T07:24:57.953Z,7.93
2019-04-05T07:27:26.317Z,7.92
2019-04-05T07:29:54.621Z,7.81
2019-04-05T07:32:22.949Z,7.80
2019-04-05T07:34:51.236Z,7.90
2019-04-05T07:37:19.546Z,8.00
2019-04-05T07:39:47.863Z,8.07
2019-04-05T07:42:16.201Z,8.19
2019-04-05T07:44:44.507Z,8.29
2019-04-05T07:47:12.801Z,8.33
2019-04-05T07:49:41.255Z,8.41
2019-04-05T07:52:09.552Z,8.44
2019-04-05T07:54:37.880Z,8.50
2019-04-05T07:57:06.236Z,8.57
2019-04-05T07:59:34.677Z,8.53
2019-04-05T08:02:03.281Z,8.41
2019-04-05T08:04:31.596Z,8.38
2019-04-05T08:07:01.793Z,8.40
2019-04-05T08:09:31.180Z,8.39
2019-04-05T08:11:59.862Z,8.34
2019-04-05T08:14:28.657Z,8.25
2019-04-05T08:16:57.029Z,8.21
2019-04-05T08:19:25.325Z,8.25
2019-04-05T08:21:53.639Z,8.31
2019-04-05T08:24:22.264Z,8.31
2019-04-05T08:26:50.610Z,8.33
2019-04-05T08:29:18.990Z,8.42
2019-04-05T08:31:47.339Z,8.46
2019-04-05T08:34:15.623Z,8.60
2019-04-05T08:36:44.263Z,8.74
2019-04-05T08:39:12.796Z,8.86
2019-04-05T08:41:41.173Z,8.87
2019-04-05T08:44:09.627Z,8.98
2019-04-05T08:46:37.937Z,9.08
2019-04-05T08:49:10.820Z,9.11
2019-04-05T08:51:36.899Z,9.13
2019-04-05T08:54:05.348Z,9.28
2019-04-05T08:56:33.810Z,9.33
2019-04-05T08:59:02.115Z,9.44
2019-04-05T09:01:30.715Z,9.43
2019-04-05T09:03:59.103Z,9.41
2019-04-05T09:06:27.396Z,9.24
2019-04-05T09:08:55.727Z,9.15
2019-04-05T09:11:24.334Z,9.09
2019-04-05T09:13:52.641Z,9.13
2019-04-05T09:16:20.940Z,9.17
2019-04-05T09:18:49.742Z,9.12
2019-04-05T09:21:18.354Z,9.07
2019-04-05T09:23:46.932Z,9.08
2019-04-05T09:26:15.509Z,9.11
2019-04-05T09:28:43.812Z,9.16
2019-04-05T09:31:12.100Z,9.15
2019-04-05T09:33:40.411Z,9.03
2019-04-05T09:36:08.712Z,9.09
2019-04-05T09:38:37.025Z,9.18
2019-04-05T09:41:05.889Z,9.12
2019-04-05T09:43:34.679Z,8.96
2019-04-05T09:46:02.993Z,8.81
2019-04-05T09:48:31.381Z,8.79
2019-04-05T09:50:59.706Z,8.78
2019-04-05T09:53:28.000Z,8.65
2019-04-05T09:55:56.597Z,8.56
2019-04-05T09:58:24.908Z,8.63
2019-04-05T10:00:53.256Z,8.63
2019-04-05T10:03:21.672Z,8.58
2019-04-05T10:05:49.981Z,8.62
2019-04-05T10:08:18.479Z,8.73
2019-04-05T10:10:46.786Z,8.85
2019-04-05T10:13:15.353Z,8.98
2019-04-05T10:15:44.117Z,9.09
2019-04-05T10:18:12.422Z,9.24
2019-04-05T10:20:40.718Z,9.30
2019-04-05T10:23:09.013Z,9.31
2019-04-05T10:25:37.336Z,9.25
2019-04-05T10:28:05.789Z,9.13
2019-04-05T10:30:34.092Z,9.01
2019-04-05T10:33:02.400Z,8.96
2019-04-05T10:35:31.048Z,8.96
2019-04-05T10:37:59.356Z,8.93
2019-04-05T10:40:27.687Z,8.92
2019-04-05T10:42:55.999Z,8.87
2019-04-05T10:45:24.496Z,8.87
2019-04-05T10:47:53.164Z,8.93
2019-04-05T10:50:21.653Z,8.92
2019-04-05T10:52:49.938Z,8.96
2019-04-05T10:55:18.305Z,9.07
2019-04-05T10:57:46.722Z,9.15
2019-04-05T11:00:16.429Z,9.23
2019-04-05T11:02:44.813Z,9.29
2019-04-05T11:05:13.672Z,9.27
2019-04-05T11:07:41.978Z,9.28
2019-04-05T11:10:10.599Z,9.28
2019-04-05T11:12:38.922Z,9.29
2019-04-05T11:15:08.386Z,9.18
2019-04-05T11:17:36.685Z,9.17
2019-04-05T11:20:21.145Z,9.17
2019-04-05T11:22:40.357Z,9.13
2019-04-05T11:25:10.669Z,9.16
2019-04-05T11:27:38.992Z,9.14
2019-04-05T11:30:09.755Z,9.20
2019-04-05T11:32:38.275Z,9.24
2019-04-05T11:35:07.757Z,9.29
2019-04-05T11:37:39.376Z,9.28
2019-04-05T11:40:07.989Z,9.20
2019-04-05T11:42:37.846Z,9.14
2019-04-05T11:45:07.971Z,9.18
2019-04-05T11:47:38.359Z,9.25
2019-04-05T11:50:09.739Z,9.36
2019-04-05T11:52:38.120Z,9.34
2019-04-05T11:55:07.999Z,9.32
2019-04-05T11:57:36.440Z,9.29
2019-04-05T12:00:13.932Z,9.29
2019-04-05T12:02:52.809Z,9.32
2019-04-05T12:05:22.874Z,9.38
2019-04-05T12:07:51.456Z,9.33
2019-04-05T12:10:19.866Z,9.31
2019-04-05T12:12:48.227Z,9.30
2019-04-05T12:15:17.181Z,9.29
2019-04-05T12:17:45.508Z,9.20
2019-04-05T12:20:14.395Z,9.17
2019-04-05T12:22:43.038Z,9.17
2019-04-05T12:25:11.401Z,9.16
2019-04-05T12:27:40.005Z,9.15
2019-04-05T12:30:10.281Z,9.23
2019-04-05T12:32:41.532Z,9.21
2019-04-05T12:35:09.140Z,9.22
2019-04-05T12:37:49.432Z,9.27
2019-04-05T12:40:10.379Z,9.28
2019-04-05T12:42:37.820Z,9.36
2019-04-05T12:45:07.280Z,9.40
2019-04-05T12:47:35.936Z,9.39
2019-04-05T12:50:08.282Z,9.41
2019-04-05T12:52:36.624Z,9.39
2019-04-05T12:55:06.186Z,9.39
2019-04-05T12:57:34.476Z,9.42
2019-04-05T13:00:03.424Z,9.39
2019-04-05T13:02:33.947Z,9.36
2019-04-05T13:05:01.766Z,9.32
2019-04-05T13:07:30.066Z,9.34
2019-04-05T13:09:58.387Z,9.37
2019-04-05T13:12:27.136Z,9.36
2019-04-05T13:15:05.315Z,9.43
2019-04-05T13:17:25.491Z,9.38
2019-04-05T13:19:53.809Z,9.28
2019-04-05T13:22:23.518Z,9.25
2019-04-05T13:24:51.989Z,9.22
2019-04-05T13:27:20.277Z,9.22
2019-04-05T13:29:49.197Z,9.26
2019-04-05T13:32:21.498Z,9.27
2019-04-05T13:34:48.771Z,9.18
2019-04-05T13:37:20.358Z,9.15
2019-04-05T13:39:47.100Z,9.08
2019-04-05T13:42:15.420Z,9.09
2019-04-05T13:44:43.716Z,9.12
2019-04-05T13:47:12.084Z,9.12
2019-04-05T13:49:40.682Z,9.09
2019-04-05T13:52:12.014Z,9.11
2019-04-05T13:54:40.346Z,9.15
2019-04-05T13:57:11.403Z,9.14
2019-04-05T13:59:39.285Z,9.08
2019-04-05T14:02:07.659Z,9.02
2019-04-05T14:04:36.264Z,8.93
2019-04-05T14:07:04.649Z,8.95
2019-04-05T14:09:33.067Z,8.94
2019-04-05T14:12:01.753Z,8.96
2019-04-05T14:14:30.067Z,8.96
2019-04-05T14:16:58.358Z,9.01
2019-04-05T14:19:28.893Z,9.01
2019-04-05T14:22:07.817Z,9.00
2019-04-05T14:24:26.782Z,8.98
2019-04-05T14:26:55.081Z,8.95
2019-04-05T14:29:23.405Z,8.86
2019-04-05T14:31:51.690Z,8.80
2019-04-05T14:34:23.442Z,8.75
2019-04-05T14:36:51.955Z,8.74
2019-04-05T14:39:20.340Z,8.75
2019-04-05T14:41:48.662Z,8.71
2019-04-05T14:44:16.969Z,8.72
2019-04-05T14:46:45.761Z,8.78
2019-04-05T14:49:14.366Z,8.82
2019-04-05T14:51:52.649Z,8.82
2019-04-05T14:54:12.741Z,8.80
2019-04-05T14:56:41.060Z,8.84
2019-04-05T14:59:09.353Z,8.85
2019-04-05T15:01:37.678Z,8.85
2019-04-05T15:04:05.977Z,8.84
2019-04-05T15:06:34.536Z,8.86
2019-04-05T15:09:03.198Z,8.87
2019-04-05T15:11:31.507Z,8.83
2019-04-05T15:13:59.917Z,8.82
2019-04-05T15:16:28.566Z,8.78
2019-04-05T15:18:56.856Z,8.70
2019-04-05T15:21:25.416Z,8.64
2019-04-05T15:23:53.753Z,8.59
2019-04-05T15:26:22.060Z,8.57
2019-04-05T15:28:54.619Z,8.58
2019-04-05T15:31:20.987Z,8.59
2019-04-05T15:33:49.285Z,8.56
2019-04-05T15:36:17.584Z,8.57
2019-04-05T15:38:45.905Z,8.62
2019-04-05T15:41:14.444Z,8.61
2019-04-05T15:43:42.756Z,8.55
2019-04-05T15:46:11.093Z,8.47
2019-04-05T15:48:39.428Z,8.49
2019-04-05T15:51:07.694Z,8.48
2019-04-05T15:53:36.035Z,8.43
2019-04-05T15:56:04.890Z,8.43
2019-04-05T15:58:34.088Z,8.46
2019-04-05T16:01:04.860Z,8.47
2019-04-05T16:03:33.589Z,8.48
2019-04-05T16:06:02.167Z,8.51
2019-04-05T16:08:30.879Z,8.49
2019-04-05T16:10:59.218Z,8.53
2019-04-05T16:13:27.822Z,8.55
2019-04-05T16:15:56.130Z,8.59
2019-04-05T16:18:24.499Z,8.62
2019-04-05T16:20:52.817Z,8.61
2019-04-05T16:23:21.117Z,8.49
2019-04-05T16:25:49.425Z,8.45
2019-04-05T16:28:17.758Z,8.43
2019-04-05T16:30:46.508Z,8.38
2019-04-05T16:33:14.790Z,8.34
2019-04-05T16:35:43.332Z,8.29
2019-04-05T16:38:11.648Z,8.28
2019-04-05T16:40:39.945Z,8.30
2019-04-05T16:43:08.257Z,8.32
2019-04-05T16:45:38.570Z,8.36
2019-04-05T16:48:06.598Z,8.36
2019-04-05T16:50:35.138Z,8.37
2019-04-05T16:53:03.455Z,8.35
2019-04-05T16:55:32.110Z,8.30
2019-04-05T16:58:00.413Z,8.29
2019-04-05T17:00:28.820Z,8.25
2019-04-05T17:02:57.093Z,8.17
2019-04-05T17:05:25.380Z,8.15
2019-04-05T17:07:53.758Z,8.12
2019-04-05T17:10:22.044Z,8.13
2019-04-05T17:12:50.353Z,8.15
2019-04-05T17:15:18.639Z,8.13
2019-04-05T17:17:46.964Z,8.13
2019-04-05T17:20:15.695Z,8.13
2019-04-05T17:22:57.127Z,8.10
2019-04-05T17:25:15.096Z,8.07
2019-04-05T17:27:43.424Z,8.07
2019-04-05T17:30:11.703Z,8.07
2019-04-05T17:32:40.021Z,8.10
2019-04-05T17:35:08.400Z,8.15
2019-04-05T17:37:36.711Z,8.20
2019-04-05T17:40:07.018Z,8.21
2019-04-05T17:42:35.313Z,8.23
2019-04-05T17:45:05.458Z,8.20
2019-04-05T17:47:33.826Z,8.12
2019-04-05T17:50:02.428Z,8.05
2019-04-05T17:52:30.721Z,8.05
2019-04-05T17:54:59.281Z,8.07
2019-04-05T17:57:27.565Z,8.09
2019-04-05T17:59:56.053Z,8.11
2019-04-05T18:02:24.337Z,8.15
2019-04-05T18:04:52.622Z,8.20
2019-04-05T18:07:21.227Z,8.15
2019-04-05T18:09:49.522Z,8.10
2019-04-05T18:12:17.822Z,8.06
2019-04-05T18:14:46.120Z,8.08
2019-04-05T18:17:14.702Z,8.11
2019-04-05T18:19:43.001Z,8.09
2019-04-05T18:22:11.312Z,8.13
2019-04-05T18:24:39.589Z,8.16
2019-04-05T18:27:07.890Z,8.21
2019-04-05T18:29:36.178Z,8.24
2019-04-05T18:32:04.466Z,8.27
2019-04-05T18:34:33.211Z,8.26
2019-04-05T18:37:01.524Z,8.23
2019-04-05T18:39:29.836Z,8.28
2019-04-05T18:41:58.432Z,8.27
2019-04-05T18:44:26.767Z,8.27
2019-04-05T18:46:55.112Z,8.26
2019-04-05T18:49:23.783Z,8.25
2019-04-05T18:51:52.066Z,8.20
2019-04-05T18:54:20.375Z,8.17
2019-04-05T18:56:48.678Z,8.16
2019-04-05T18:59:17.019Z,8.22
2019-04-05T19:01:45.302Z,8.23
2019-04-05T19:04:13.664Z,8.26
2019-04-05T19:06:42.089Z,8.23
2019-04-05T19:09:11.847Z,8.17
2019-04-05T19:11:40.487Z,8.17
2019-04-05T19:14:08.827Z,8.15
2019-04-05T19:16:37.141Z,8.14
2019-04-05T19:19:05.436Z,8.13
2019-04-05T19:21:34.025Z,8.12
2019-04-05T19:24:02.666Z,8.10
2019-04-05T19:26:30.992Z,8.10
2019-04-05T19:28:59.947Z,8.12
2019-04-05T19:48:59.420Z,8.29
2019-04-05T19:51:27.713Z,8.27
2019-04-05T19:54:01.276Z,8.26
2019-04-05T19:56:26.384Z,8.24
2019-04-05T19:58:54.961Z,8.22
2019-04-05T20:01:23.264Z,8.19
2019-04-05T20:03:51.656Z,8.15
2019-04-05T20:06:19.958Z,8.14
2019-04-05T20:08:48.263Z,8.16
2019-04-05T20:11:18.034Z,8.15
2019-04-05T20:13:46.455Z,8.12
2019-04-05T20:16:14.994Z,8.08
2019-04-05T20:18:43.355Z,8.11
2019-04-05T20:21:11.678Z,8.07
2019-04-05T20:23:47.392Z,8.08
2019-04-05T20:26:10.021Z,8.11
2019-04-05T20:28:38.307Z,8.13
2019-04-05T20:31:06.626Z,8.17
2019-04-05T20:33:34.952Z,8.20
2019-04-05T20:36:03.266Z,8.19
2019-04-05T20:38:31.554Z,8.17
2019-04-05T20:40:59.860Z,8.14
2019-04-05T20:43:28.161Z,8.13
2019-04-05T20:45:56.832Z,8.13
2019-04-05T20:48:25.134Z,8.13
2019-04-05T20:50:53.450Z,8.16
2019-04-05T20:53:22.051Z,8.15
2019-04-05T20:55:50.365Z,8.09
2019-04-05T20:58:18.920Z,8.14
2019-04-05T21:00:47.247Z,8.17
2019-04-05T21:03:16.005Z,8.21
2019-04-05T21:05:44.430Z,8.26
2019-04-05T21:08:12.725Z,8.28
2019-04-05T21:10:41.037Z,8.32
2019-04-05T21:13:09.329Z,8.31
2019-04-05T21:15:37.636Z,8.35
2019-04-05T21:18:06.256Z,8.33
2019-04-05T21:20:34.977Z,8.31
2019-04-05T21:23:03.662Z,8.28
2019-04-05T21:25:31.999Z,8.30
2019-04-05T21:28:00.310Z,8.31
2019-04-05T21:30:28.658Z,8.32
2019-04-05T21:32:56.981Z,8.32
2019-04-05T21:35:25.338Z,8.36
2019-04-05T21:37:53.654Z,8.41
2019-04-05T21:40:21.997Z,8.44
2019-04-05T21:42:50.402Z,8.43
2019-04-05T21:45:18.793Z,8.42
2019-04-05T21:47:47.116Z,8.39
2019-04-05T21:50:15.513Z,8.35
2019-04-05T21:52:44.216Z,8.29
2019-04-05T21:55:13.073Z,8.28
2019-04-05T21:57:41.396Z,8.25
2019-04-05T22:00:33.314Z,8.22
2019-04-05T22:03:01.643Z,8.18
2019-04-05T22:05:29.971Z,8.18
2019-04-05T22:07:58.670Z,8.19
2019-04-05T22:10:27.175Z,8.22
2019-04-05T22:12:58.779Z,8.24
2019-04-05T22:15:26.634Z,8.28
2019-04-05T22:17:55.001Z,8.33
2019-04-05T22:20:23.390Z,8.33
2019-04-05T22:22:51.724Z,8.32
2019-04-05T22:25:20.353Z,8.35
2019-04-05T22:27:49.391Z,8.39
2019-04-05T22:30:18.014Z,8.40
2019-04-05T22:32:46.342Z,8.40
2019-04-05T22:35:15.013Z,8.35
2019-04-05T22:37:43.468Z,8.31
2019-04-05T22:40:12.168Z,8.30
2019-04-05T22:42:40.519Z,8.31
2019-04-05T22:45:09.024Z,8.30
2019-04-05T22:47:37.369Z,8.30
2019-04-05T22:50:06.498Z,8.27
2019-04-05T22:52:37.532Z,8.25
2019-04-05T22:55:11.560Z,8.22
2019-04-05T22:57:36.833Z,8.17
2019-04-05T23:00:07.064Z,8.14
2019-04-05T23:02:35.445Z,8.10
2019-04-05T23:05:04.530Z,8.11
2019-04-05T23:07:32.888Z,8.16
2019-04-05T23:10:01.523Z,8.18
2019-04-05T23:12:29.894Z,8.13
2019-04-05T23:14:58.223Z,8.12
2019-04-05T23:17:26.581Z,8.11
2019-04-05T23:19:54.908Z,8.12
2019-04-05T23:22:23.271Z,8.12
2019-04-05T23:24:51.639Z,8.11
2019-04-05T23:27:20.008Z,8.08
2019-04-05T23:29:48.334Z,8.09
2019-04-05T23:32:16.674Z,8.15
2019-04-05T23:34:45.014Z,8.18
2019-04-05T23:37:13.351Z,8.18
2019-04-05T23:39:41.746Z,8.17
2019-04-05T23:42:10.109Z,8.19
2019-04-05T23:44:38.721Z,8.18
2019-04-05T23:47:07.402Z,8.18
2019-04-05T23:49:35.758Z,8.17
2019-04-05T23:52:04.130Z,8.18
2019-04-05T23:54:32.475Z,8.15
2019-04-05T23:57:00.804Z,8.17
2019-04-05T23:59:29.160Z,8.15
